• Join FlightAware (Why Join?)
  • Login
  • US Flag 
05:18AM EDT


 

Airport Tracker/Info


-or-


 

Live Flight TrackerFlight Track Log ✈ N70AG ✈ 12-May-2013 ✈ KSCK - KSAN

Flight Track Log - Related Links

Times and Time Zones

All times are in EDT time to prevent confusion due to time zone crossing. See the N70AG flight status page for this flight to view local times or setup timezone preferences in your user account.

Time Position Orientation Groundspeed Altitude Reporting Facility
EDT Latitude Longitude Course Direction KTS MPH feet Rate Location/Type
07:22PM 37.9333 -121.1833 162° South 271 312 4,800  Level Northern Cal TRACON
07:23PM 37.8667 -121.1333 149° Southeast 292 336 8,200 3,120 Climbing Northern Cal TRACON
07:24PM 37.8000 -121.1000 158° South 299 344 11,100 2,760 Climbing Northern Cal TRACON
07:25PM 37.7167 -121.0500 155° Southeast 350 403 13,500 2,460 Climbing Northern Cal TRACON
07:27PM 37.3100 -120.8773 162° South  Level FlightAware Approximate
07:27PM 37.5342 -120.9567 158° South 374 430 18,400  Level Oakland Center
07:28PM 37.4350 -120.8969 154° Southeast 389 448 19,000 240 Climbing Oakland Center
07:29PM 37.3364 -120.8372 154° Southeast 393 452 19,000  Level Oakland Center
07:30PM 37.2336 -120.7764 155° Southeast 410 472 19,000 960 Level Oakland Center
07:31PM 37.1144 -120.7044 154° Southeast 396 456 21,000 2,100 Climbing Oakland Center
07:32PM 37.0119 -120.6417 154° Southeast 416 479 23,400 2,340 Climbing Oakland Center
07:33PM 36.9033 -120.5725 153° Southeast 440 506 25,900 2,160 Climbing Oakland Center
07:34PM 36.7950 -120.5122 156° South 444 511 27,900 2,040 Climbing Oakland Center
07:35PM 36.6792 -120.4542 158° South 442 509 30,200 2,280 Climbing Oakland Center
07:36PM 36.5647 -120.4022 160° South 431 496 32,600 2,220 Climbing Oakland Center
07:37PM 36.4469 -120.3456 159° South 462 532 34,800 2,100 Climbing Oakland Center
07:38PM 36.3097 -120.2797 159° South 441 507 37,000 1,020 Climbing Oakland Center
07:39PM 36.1881 -120.2225 159° South 471 542 37,000  Level Oakland Center
07:40PM 36.0592 -120.1656 160° South 487 560 37,000  Level Oakland Center
07:41PM 35.9306 -120.1108 161° South 486 559 37,000  Level Oakland Center
07:42PM 35.7997 -120.0492 159° South 498 573 37,000  Level Oakland Center
07:43PM 35.6678 -119.9883 159° South 500 575 37,000  Level Oakland Center
07:44PM 35.5497 -119.8953 147° Southeast 501 577 37,000  Level Oakland Center
07:45PM 35.4347 -119.7961 145° Southeast 500 575 37,000  Level Oakland Center
07:46PM 35.3244 -119.6933 143° Southeast 497 572 37,000  Level Oakland Center
07:47PM 35.2136 -119.5897 143° Southeast 498 573 37,000  Level Oakland Center
07:48PM 35.1031 -119.4867 143° Southeast 499 574 37,000  Level Oakland Center
07:49PM 34.9686 -119.3639 143° Southeast 502 578 37,000  Level Oakland Center
07:50PM 34.8578 -119.2619 143° Southeast 498 573 37,000 -780 Level Oakland Center
07:51PM 34.7497 -119.1625 143° Southeast 492 566 35,500 -900 Descending Oakland Center
07:53PM 34.6267 -119.0547 144° Southeast 478 550 35,000 -240 Descending Los Angeles Center
07:54PM 34.4908 -118.9333 144° Southeast 505 581 35,000  Level Los Angeles Center
07:55PM 34.3775 -118.8317 143° Southeast 506 582 35,000  Level Los Angeles Center
07:56PM 34.2656 -118.7294 143° Southeast 505 581 35,000 -300 Level Los Angeles Center
07:57PM 34.1522 -118.6283 144° Southeast 506 582 34,500 -1,260 Descending Los Angeles Center
07:58PM 34.0381 -118.5269 144° Southeast 508 585 32,400 -1,260 Descending Los Angeles Center
07:59PM 33.9286 -118.4222 142° Southeast 502 578 32,000 -780 Descending Los Angeles Center
08:00PM 33.8242 -118.2897 133° Southeast 505 581 30,800 -1,680 Descending Los Angeles Center
08:01PM 33.7308 -118.1714 133° Southeast 501 577 28,600 -2,280 Descending Los Angeles Center
08:02PM 33.6244 -118.0353 133° Southeast 479 551 26,200 -1,800 Descending Los Angeles Center
08:03PM 33.5386 -117.9294 134° Southeast 453 521 25,000 -600 Descending Los Angeles Center
08:04PM 33.4525 -117.8206 133° Southeast 448 516 25,000 -360 Level Los Angeles Center
08:05PM 33.3658 -117.7125 134° Southeast 450 518 24,300 -1,440 Descending Los Angeles Center
08:06PM 33.2833 -117.6167 136° Southeast 438 504 22,400 -2,100 Descending Southern California TRACON
08:07PM 33.2000 -117.5167 135° Southeast 444 511 20,500 -2,280 Descending Southern California TRACON
08:08PM 33.1000 -117.4500 151° Southeast 414 476 17,900 -2,160 Descending Southern California TRACON
08:08PM 33.0953 -117.4375 114° Southeast 418 481 17,800 -2,580 Descending Los Angeles Center
08:09PM 33.0167 -117.3667 143° Southeast 385 443 15,300 -2,880 Descending Southern California TRACON
08:10PM 32.9333 -117.3167 153° Southeast 338 389 13,000 -2,580 Descending Southern California TRACON
08:11PM 32.8667 -117.2500 140° Southeast 300 345 10,500 -2,280 Descending Southern California TRACON
08:11PM 32.8469 -117.2358 149° Southeast 305 351 9,700 -2,280 Descending Los Angeles Center
08:12PM 32.7925 -117.1728 136° Southeast 282 325 7,200 -2,520 Descending Los Angeles Center
08:13PM 32.7667 -117.1167 119° Southeast 255 293 5,600 -1,560 Descending Southern California TRACON
08:14PM 32.7500 -117.0500 107° East 209 241 4,700 -1,200 Descending Southern California TRACON
08:15PM 32.7167 -117.0667 203° Southwest 186 214 3,200 -1,440 Descending Southern California TRACON
08:16PM 32.7167 -117.1000 270° West 139 160 1,800 -1,260 Descending Southern California TRACON
08:17PM 32.7167 -117.1500 270° West 135 155 700 -1,020 Descending Southern California TRACON
08:17PM 32.7264 -117.1653 307° West 138 159 300 -780 Descending Los Angeles Center
08:19PM 32.7333 -117.1833 235° Southwest  Level FlightAware Approximate
08:26PM 32.7336 -117.1897 235° Southwest  Level Estimated